sensor_id;sensor_type;location;lat;lon;timestamp;pressure;altitude;pressure_sealevel;temperature;humidity
67015;BME280;1033;52.560;13.374;2023-04-28T00:02:02;101410.94;;;4.99;75.72
67015;BME280;1033;52.560;13.374;2023-04-28T00:04:31;101407.72;;;4.78;75.09
67015;BME280;1033;52.560;13.374;2023-04-28T00:07:04;101403.94;;;4.71;74.82
67015;BME280;1033;52.560;13.374;2023-04-28T00:09:34;101399.75;;;4.86;76.84
67015;BME280;1033;52.560;13.374;2023-04-28T00:12:04;101400.91;;;4.84;77.60
67015;BME280;1033;52.560;13.374;2023-04-28T00:14:33;101398.44;;;4.72;77.25
67015;BME280;1033;52.560;13.374;2023-04-28T00:17:02;101396.75;;;4.71;77.81
67015;BME280;1033;52.560;13.374;2023-04-28T00:19:31;101395.44;;;4.58;78.29
67015;BME280;1033;52.560;13.374;2023-04-28T00:22:01;101397.34;;;4.65;78.96
67015;BME280;1033;52.560;13.374;2023-04-28T00:24:31;101399.50;;;4.79;78.99
67015;BME280;1033;52.560;13.374;2023-04-28T00:27:04;101400.66;;;4.77;77.72
67015;BME280;1033;52.560;13.374;2023-04-28T00:29:34;101401.94;;;4.55;77.58
67015;BME280;1033;52.560;13.374;2023-04-28T00:32:03;101405.56;;;4.81;74.71
67015;BME280;1033;52.560;13.374;2023-04-28T00:34:33;101401.13;;;4.90;73.12
67015;BME280;1033;52.560;13.374;2023-04-28T00:37:04;101396.91;;;4.88;75.47
67015;BME280;1033;52.560;13.374;2023-04-28T00:39:33;101399.22;;;4.82;75.21
67015;BME280;1033;52.560;13.374;2023-04-28T00:42:04;101400.13;;;4.73;76.08
67015;BME280;1033;52.560;13.374;2023-04-28T00:44:33;101393.53;;;4.68;75.65
67015;BME280;1033;52.560;13.374;2023-04-28T00:47:02;101391.72;;;4.68;75.53
67015;BME280;1033;52.560;13.374;2023-04-28T00:49:32;101391.72;;;4.68;74.00
67015;BME280;1033;52.560;13.374;2023-04-28T00:52:04;101376.47;;;4.69;74.45
67015;BME280;1033;52.560;13.374;2023-04-28T00:54:33;101377.22;;;4.61;75.31
67015;BME280;1033;52.560;13.374;2023-04-28T00:57:05;101382.03;;;4.75;74.83
67015;BME280;1033;52.560;13.374;2023-04-28T00:59:35;101384.34;;;4.70;73.59
67015;BME280;1033;52.560;13.374;2023-04-28T01:02:05;101377.00;;;4.72;73.42
67015;BME280;1033;52.560;13.374;2023-04-28T01:04:35;101382.03;;;4.75;71.69
67015;BME280;1033;52.560;13.374;2023-04-28T01:07:04;101375.69;;;4.76;72.25
67015;BME280;1033;52.560;13.374;2023-04-28T01:09:34;101378.06;;;4.79;72.97
67015;BME280;1033;52.560;13.374;2023-04-28T01:12:06;101371.78;;;4.71;72.90
67015;BME280;1033;52.560;13.374;2023-04-28T01:14:41;101372.22;;;4.66;72.51
67015;BME280;1033;52.560;13.374;2023-04-28T01:17:11;101370.25;;;4.68;73.69
67015;BME280;1033;52.560;13.374;2023-04-28T01:19:41;101370.53;;;4.65;72.39
67015;BME280;1033;52.560;13.374;2023-04-28T01:22:10;101364.56;;;4.71;72.10
67015;BME280;1033;52.560;13.374;2023-04-28T01:24:45;101362.72;;;4.90;74.58
67015;BME280;1033;52.560;13.374;2023-04-28T01:27:14;101358.22;;;4.72;73.67
67015;BME280;1033;52.560;13.374;2023-04-28T01:29:44;101354.56;;;4.73;74.60
67015;BME280;1033;52.560;13.374;2023-04-28T01:32:13;101356.91;;;4.76;73.13
67015;BME280;1033;52.560;13.374;2023-04-28T01:34:42;101352.25;;;4.78;73.58
67015;BME280;1033;52.560;13.374;2023-04-28T01:37:12;101355.22;;;4.75;72.88
67015;BME280;1033;52.560;13.374;2023-04-28T01:39:41;101349.88;;;4.75;71.57
67015;BME280;1033;52.560;13.374;2023-04-28T01:42:11;101351.69;;;4.75;71.62
67015;BME280;1033;52.560;13.374;2023-04-28T01:45:05;101352.41;;;4.77;72.18
67015;BME280;1033;52.560;13.374;2023-04-28T01:47:36;101350.56;;;4.77;72.20
67015;BME280;1033;52.560;13.374;2023-04-28T01:50:06;101343.44;;;4.68;72.58
67015;BME280;1033;52.560;13.374;2023-04-28T01:52:35;101350.13;;;4.64;73.28
67015;BME280;1033;52.560;13.374;2023-04-28T01:58:49;101341.59;;;4.51;74.57
67015;BME280;1033;52.560;13.374;2023-04-28T02:01:18;101332.56;;;4.52;75.26
67015;BME280;1033;52.560;13.374;2023-04-28T02:03:48;101334.84;;;4.47;75.08
67015;BME280;1033;52.560;13.374;2023-04-28T02:06:17;101332.56;;;4.52;75.49
67015;BME280;1033;52.560;13.374;2023-04-28T02:08:47;101337.66;;;4.46;75.34
67015;BME280;1033;52.560;13.374;2023-04-28T02:11:16;101336.75;;;4.37;76.29
67015;BME280;1033;52.560;13.374;2023-04-28T02:13:46;101338.38;;;4.30;76.38
67015;BME280;1033;52.560;13.374;2023-04-28T02:16:16;101336.59;;;4.38;75.98
67015;BME280;1033;52.560;13.374;2023-04-28T02:18:46;101345.09;;;4.34;75.54
67015;BME280;1033;52.560;13.374;2023-04-28T02:21:15;101339.59;;;4.35;75.48
67015;BME280;1033;52.560;13.374;2023-04-28T02:23:44;101340.97;;;4.40;75.88
67015;BME280;1033;52.560;13.374;2023-04-28T02:26:14;101337.00;;;4.26;75.98
67015;BME280;1033;52.560;13.374;2023-04-28T02:28:43;101341.38;;;4.17;76.27
67015;BME280;1033;52.560;13.374;2023-04-28T02:31:13;101334.59;;;4.23;76.69
67015;BME280;1033;52.560;13.374;2023-04-28T02:33:44;101326.06;;;4.10;77.07
67015;BME280;1033;52.560;13.374;2023-04-28T02:36:13;101327.78;;;4.11;77.10
67015;BME280;1033;52.560;13.374;2023-04-28T02:38:43;101330.72;;;4.08;77.77
67015;BME280;1033;52.560;13.374;2023-04-28T02:41:12;101324.63;;;4.15;77.89
67015;BME280;1033;52.560;13.374;2023-04-28T02:43:42;101334.50;;;4.15;76.92
67015;BME280;1033;52.560;13.374;2023-04-28T02:46:11;101322.81;;;4.16;76.71
67015;BME280;1033;52.560;13.374;2023-04-28T02:48:43;101322.09;;;4.14;76.96
67015;BME280;1033;52.560;13.374;2023-04-28T02:51:12;101322.81;;;4.16;76.77
67015;BME280;1033;52.560;13.374;2023-04-28T02:53:42;101318.72;;;4.12;76.64
67015;BME280;1033;52.560;13.374;2023-04-28T02:56:11;101319.88;;;4.09;76.68
67015;BME280;1033;52.560;13.374;2023-04-28T02:58:40;101317.06;;;4.11;76.63
67015;BME280;1033;52.560;13.374;2023-04-28T03:01:10;101321.19;;;4.23;76.25
67015;BME280;1033;52.560;13.374;2023-04-28T03:03:39;101315.63;;;4.16;76.30
67015;BME280;1033;52.560;13.374;2023-04-28T03:06:10;101315.00;;;4.22;76.19
67015;BME280;1033;52.560;13.374;2023-04-28T03:08:39;101315.56;;;4.26;75.60
67015;BME280;1033;52.560;13.374;2023-04-28T03:11:09;101306.59;;;4.35;75.51
67015;BME280;1033;52.560;13.374;2023-04-28T03:13:38;101308.97;;;4.38;75.24
67015;BME280;1033;52.560;13.374;2023-04-28T03:16:08;101313.16;;;4.41;75.09
67015;BME280;1033;52.560;13.374;2023-04-28T03:18:38;101303.22;;;4.33;75.47
67015;BME280;1033;52.560;13.374;2023-04-28T03:21:11;101309.34;;;4.43;75.26
67015;BME280;1033;52.560;13.374;2023-04-28T03:23:40;101311.50;;;4.40;75.40
67015;BME280;1033;52.560;13.374;2023-04-28T03:26:10;101305.81;;;4.43;75.15
67015;BME280;1033;52.560;13.374;2023-04-28T03:28:39;101305.22;;;4.49;74.89
67015;BME280;1033;52.560;13.374;2023-04-28T03:31:08;101308.06;;;4.47;75.13
67015;BME280;1033;52.560;13.374;2023-04-28T03:33:38;101295.56;;;4.56;74.26
67015;BME280;1033;52.560;13.374;2023-04-28T03:36:07;101303.28;;;4.76;73.41
67015;BME280;1033;52.560;13.374;2023-04-28T03:38:38;101297.63;;;4.79;73.39
67015;BME280;1033;52.560;13.374;2023-04-28T03:41:08;101296.00;;;4.87;72.63
67015;BME280;1033;52.560;13.374;2023-04-28T03:44:06;101296.44;;;5.00;72.24
67015;BME280;1033;52.560;13.374;2023-04-28T03:46:44;101297.44;;;4.99;72.00
67015;BME280;1033;52.560;13.374;2023-04-28T03:49:15;101294.72;;;5.16;70.91
67015;BME280;1033;52.560;13.374;2023-04-28T03:51:44;101292.88;;;5.17;70.71
67015;BME280;1033;52.560;13.374;2023-04-28T03:54:17;101289.72;;;5.21;70.45
67015;BME280;1033;52.560;13.374;2023-04-28T03:56:46;101291.59;;;5.29;70.13
67015;BME280;1033;52.560;13.374;2023-04-28T03:59:16;101285.25;;;5.30;69.90
67015;BME280;1033;52.560;13.374;2023-04-28T04:01:45;101285.75;;;5.59;69.06
67015;BME280;1033;52.560;13.374;2023-04-28T04:04:15;101280.75;;;5.73;68.25
67015;BME280;1033;52.560;13.374;2023-04-28T04:06:45;101283.31;;;5.74;67.87
67015;BME280;1033;52.560;13.374;2023-04-28T04:09:15;101275.53;;;5.97;67.29
67015;BME280;1033;52.560;13.374;2023-04-28T04:11:44;101282.59;;;6.06;66.07
67015;BME280;1033;52.560;13.374;2023-04-28T04:14:13;101282.44;;;5.99;66.49
67015;BME280;1033;52.560;13.374;2023-04-28T04:16:45;101280.59;;;6.08;66.24
67015;BME280;1033;52.560;13.374;2023-04-28T04:19:14;101285.63;;;6.11;66.46
67015;BME280;1033;52.560;13.374;2023-04-28T04:21:44;101273.91;;;6.20;65.86
67015;BME280;1033;52.560;13.374;2023-04-28T04:24:13;101277.16;;;6.56;65.18
67015;BME280;1033;52.560;13.374;2023-04-28T04:26:44;101267.88;;;7.78;61.21
67015;BME280;1033;52.560;13.374;2023-04-28T04:29:25;101275.00;;;9.16;56.84
67015;BME280;1033;52.560;13.374;2023-04-28T04:31:54;101273.03;;;10.27;52.96
67015;BME280;1033;52.560;13.374;2023-04-28T04:34:24;101270.66;;;10.60;51.39
67015;BME280;1033;52.560;13.374;2023-04-28T04:36:53;101269.06;;;11.15;50.28
67015;BME280;1033;52.560;13.374;2023-04-28T04:39:23;101260.34;;;11.19;49.38
67015;BME280;1033;52.560;13.374;2023-04-28T04:41:53;101259.31;;;11.20;49.35
67015;BME280;1033;52.560;13.374;2023-04-28T04:44:52;101255.56;;;11.49;48.25
67015;BME280;1033;52.560;13.374;2023-04-28T04:47:27;101253.00;;;12.23;46.39
67015;BME280;1033;52.560;13.374;2023-04-28T04:49:57;101247.88;;;11.94;46.31
67015;BME280;1033;52.560;13.374;2023-04-28T04:52:26;101255.59;;;11.28;47.32
67015;BME280;1033;52.560;13.374;2023-04-28T04:54:56;101257.16;;;11.37;47.69
67015;BME280;1033;52.560;13.374;2023-04-28T04:57:26;101254.66;;;12.17;46.05
67015;BME280;1033;52.560;13.374;2023-04-28T05:00:05;101246.34;;;12.32;44.98
67015;BME280;1033;52.560;13.374;2023-04-28T05:02:35;101242.16;;;12.36;45.11
67015;BME280;1033;52.560;13.374;2023-04-28T05:05:05;101244.09;;;12.75;44.44
67015;BME280;1033;52.560;13.374;2023-04-28T05:08:09;101253.47;;;14.09;42.12
67015;BME280;1033;52.560;13.374;2023-04-28T05:10:38;101234.31;;;14.35;41.12
67015;BME280;1033;52.560;13.374;2023-04-28T05:13:09;101242.91;;;14.32;40.88
67015;BME280;1033;52.560;13.374;2023-04-28T05:15:39;101237.31;;;14.21;40.89
67015;BME280;1033;52.560;13.374;2023-04-28T05:18:26;101231.69;;;12.20;44.23
67015;BME280;1033;52.560;13.374;2023-04-28T05:20:56;101241.94;;;10.59;47.76
67015;BME280;1033;52.560;13.374;2023-04-28T05:23:25;101239.47;;;9.56;50.87
67015;BME280;1033;52.560;13.374;2023-04-28T05:25:54;101243.53;;;8.94;52.47
67015;BME280;1033;52.560;13.374;2023-04-28T05:28:25;101241.28;;;8.60;53.36
67015;BME280;1033;52.560;13.374;2023-04-28T05:30:55;101245.16;;;8.35;54.27
67015;BME280;1033;52.560;13.374;2023-04-28T05:33:25;101230.03;;;8.25;55.27
67015;BME280;1033;52.560;13.374;2023-04-28T05:35:54;101231.88;;;8.33;54.91
67015;BME280;1033;52.560;13.374;2023-04-28T05:38:23;101227.81;;;8.37;55.00
67015;BME280;1033;52.560;13.374;2023-04-28T05:40:54;101218.56;;;8.54;55.10
67015;BME280;1033;52.560;13.374;2023-04-28T05:43:25;101219.41;;;8.55;55.37
67015;BME280;1033;52.560;13.374;2023-04-28T05:45:54;101224.00;;;8.69;54.33
67015;BME280;1033;52.560;13.374;2023-04-28T05:48:23;101215.81;;;8.77;54.47
67015;BME280;1033;52.560;13.374;2023-04-28T05:50:54;101221.81;;;8.87;54.25
67015;BME280;1033;52.560;13.374;2023-04-28T05:53:23;101218.13;;;9.03;53.56
67015;BME280;1033;52.560;13.374;2023-04-28T05:55:52;101212.63;;;9.26;53.10
67015;BME280;1033;52.560;13.374;2023-04-28T05:58:21;101213.28;;;9.13;52.95
67015;BME280;1033;52.560;13.374;2023-04-28T06:00:52;101203.22;;;9.22;52.75
67015;BME280;1033;52.560;13.374;2023-04-28T06:03:22;101206.22;;;9.27;52.45
67015;BME280;1033;52.560;13.374;2023-04-28T06:05:52;101198.78;;;9.43;51.98
67015;BME280;1033;52.560;13.374;2023-04-28T06:08:21;101198.19;;;9.63;51.55
67015;BME280;1033;52.560;13.374;2023-04-28T06:10:50;101193.13;;;9.74;51.26
67015;BME280;1033;52.560;13.374;2023-04-28T06:13:20;101201.16;;;10.03;50.70
67015;BME280;1033;52.560;13.374;2023-04-28T06:15:51;101194.13;;;10.24;49.71
67015;BME280;1033;52.560;13.374;2023-04-28T06:18:20;101195.50;;;10.34;49.60
67015;BME280;1033;52.560;13.374;2023-04-28T06:20:50;101192.84;;;10.20;49.52
67015;BME280;1033;52.560;13.374;2023-04-28T06:23:20;101193.22;;;10.17;49.30
67015;BME280;1033;52.560;13.374;2023-04-28T06:25:50;101190.44;;;10.31;48.85
67015;BME280;1033;52.560;13.374;2023-04-28T06:28:19;101192.34;;;10.31;48.65
67015;BME280;1033;52.560;13.374;2023-04-28T06:30:51;101191.03;;;10.27;48.53
67015;BME280;1033;52.560;13.374;2023-04-28T06:33:20;101176.28;;;10.51;48.01
67015;BME280;1033;52.560;13.374;2023-04-28T06:35:49;101182.16;;;10.54;47.99
67015;BME280;1033;52.560;13.374;2023-04-28T06:38:18;101181.81;;;10.92;46.95
67015;BME280;1033;52.560;13.374;2023-04-28T06:40:48;101175.75;;;10.89;46.85
67015;BME280;1033;52.560;13.374;2023-04-28T06:43:17;101177.44;;;10.90;46.15
67015;BME280;1033;52.560;13.374;2023-04-28T06:45:57;101174.00;;;11.03;46.41
67015;BME280;1033;52.560;13.374;2023-04-28T06:48:27;101161.16;;;11.18;45.54
67015;BME280;1033;52.560;13.374;2023-04-28T06:50:56;101171.59;;;11.21;45.57
67015;BME280;1033;52.560;13.374;2023-04-28T06:53:25;101165.75;;;11.18;45.20
67015;BME280;1033;52.560;13.374;2023-04-28T06:55:55;101167.81;;;11.16;45.55
67015;BME280;1033;52.560;13.374;2023-04-28T06:58:24;101162.09;;;11.32;45.08
67015;BME280;1033;52.560;13.374;2023-04-28T07:00:53;101158.84;;;11.56;44.84
67015;BME280;1033;52.560;13.374;2023-04-28T07:03:25;101154.25;;;11.50;43.83
67015;BME280;1033;52.560;13.374;2023-04-28T07:05:54;101151.50;;;11.44;44.10
67015;BME280;1033;52.560;13.374;2023-04-28T07:08:23;101152.56;;;11.49;43.48
67015;BME280;1033;52.560;13.374;2023-04-28T07:10:52;101147.47;;;11.26;43.39
67015;BME280;1033;52.560;13.374;2023-04-28T07:13:21;101152.41;;;11.64;43.34
67015;BME280;1033;52.560;13.374;2023-04-28T07:15:50;101153.09;;;11.72;41.87
67015;BME280;1033;52.560;13.374;2023-04-28T07:18:19;101141.88;;;11.75;41.88
67015;BME280;1033;52.560;13.374;2023-04-28T07:20:50;101143.34;;;11.91;41.97
67015;BME280;1033;52.560;13.374;2023-04-28T07:23:19;101139.38;;;11.87;42.53
67015;BME280;1033;52.560;13.374;2023-04-28T07:25:48;101130.63;;;11.85;42.67
67015;BME280;1033;52.560;13.374;2023-04-28T07:28:17;101128.91;;;11.77;43.08
67015;BME280;1033;52.560;13.374;2023-04-28T07:30:47;101138.16;;;12.03;42.50
67015;BME280;1033;52.560;13.374;2023-04-28T07:33:16;101132.31;;;11.99;42.59
67015;BME280;1033;52.560;13.374;2023-04-28T07:35:45;101128.56;;;12.07;42.90
67015;BME280;1033;52.560;13.374;2023-04-28T07:38:16;101124.84;;;12.21;42.45
67015;BME280;1033;52.560;13.374;2023-04-28T07:40:47;101115.22;;;12.25;42.80
67015;BME280;1033;52.560;13.374;2023-04-28T07:43:22;101120.69;;;12.38;42.44
67015;BME280;1033;52.560;13.374;2023-04-28T07:45:51;101124.25;;;12.39;42.30
67015;BME280;1033;52.560;13.374;2023-04-28T07:48:20;101106.06;;;12.26;42.59
67015;BME280;1033;52.560;13.374;2023-04-28T07:50:49;101109.00;;;12.25;42.37
67015;BME280;1033;52.560;13.374;2023-04-28T07:53:20;101111.06;;;12.36;42.69
67015;BME280;1033;52.560;13.374;2023-04-28T07:55:49;101108.97;;;12.44;42.64
67015;BME280;1033;52.560;13.374;2023-04-28T07:58:18;101109.38;;;12.54;42.41
67015;BME280;1033;52.560;13.374;2023-04-28T08:00:47;101103.56;;;12.57;42.31
67015;BME280;1033;52.560;13.374;2023-04-28T08:03:17;101102.31;;;12.53;42.14
67015;BME280;1033;52.560;13.374;2023-04-28T08:05:48;101099.38;;;12.61;42.02
67015;BME280;1033;52.560;13.374;2023-04-28T08:08:19;101097.47;;;12.82;41.79
67015;BME280;1033;52.560;13.374;2023-04-28T08:10:48;101101.63;;;12.91;41.42
67015;BME280;1033;52.560;13.374;2023-04-28T08:13:17;101093.06;;;12.87;41.29
67015;BME280;1033;52.560;13.374;2023-04-28T08:15:47;101094.28;;;13.04;41.01
67015;BME280;1033;52.560;13.374;2023-04-28T08:18:16;101092.19;;;13.06;41.25
67015;BME280;1033;52.560;13.374;2023-04-28T08:20:45;101088.84;;;13.04;41.03
67015;BME280;1033;52.560;13.374;2023-04-28T08:23:15;101087.59;;;13.00;41.02
67015;BME280;1033;52.560;13.374;2023-04-28T08:25:45;101095.31;;;13.17;40.99
67015;BME280;1033;52.560;13.374;2023-04-28T08:28:14;101092.16;;;13.26;40.64
67015;BME280;1033;52.560;13.374;2023-04-28T08:30:43;101089.19;;;13.34;40.68
67015;BME280;1033;52.560;13.374;2023-04-28T08:33:12;101081.97;;;13.60;40.14
67015;BME280;1033;52.560;13.374;2023-04-28T08:35:42;101085.25;;;13.68;39.66
67015;BME280;1033;52.560;13.374;2023-04-28T08:38:11;101083.28;;;13.51;39.76
67015;BME280;1033;52.560;13.374;2023-04-28T08:40:43;101080.19;;;13.72;39.39
67015;BME280;1033;52.560;13.374;2023-04-28T08:43:12;101080.19;;;13.78;39.61
67015;BME280;1033;52.560;13.374;2023-04-28T08:45:43;101081.28;;;14.02;39.27
67015;BME280;1033;52.560;13.374;2023-04-28T08:48:17;101080.47;;;13.95;39.45
67015;BME280;1033;52.560;13.374;2023-04-28T08:50:51;101076.94;;;14.19;39.00
67015;BME280;1033;52.560;13.374;2023-04-28T08:53:22;101071.09;;;13.91;39.46
67015;BME280;1033;52.560;13.374;2023-04-28T08:55:57;101061.63;;;14.25;38.79
67015;BME280;1033;52.560;13.374;2023-04-28T08:58:27;101064.72;;;14.28;38.66
67015;BME280;1033;52.560;13.374;2023-04-28T09:00:56;101059.34;;;14.22;38.68
67015;BME280;1033;52.560;13.374;2023-04-28T09:03:26;101053.16;;;14.33;38.94
67015;BME280;1033;52.560;13.374;2023-04-28T09:05:56;101046.84;;;14.64;38.50
67015;BME280;1033;52.560;13.374;2023-04-28T09:08:25;101046.25;;;14.62;38.16
67015;BME280;1033;52.560;13.374;2023-04-28T09:11:09;101044.59;;;14.36;38.85
67015;BME280;1033;52.560;13.374;2023-04-28T09:13:40;101031.38;;;14.40;39.22
67015;BME280;1033;52.560;13.374;2023-04-28T09:16:09;101033.13;;;14.27;39.30
67015;BME280;1033;52.560;13.374;2023-04-28T09:18:40;101021.41;;;14.52;39.03
67015;BME280;1033;52.560;13.374;2023-04-28T09:21:23;101021.88;;;14.85;38.52
67015;BME280;1033;52.560;13.374;2023-04-28T09:23:52;101024.69;;;15.15;38.15
67015;BME280;1033;52.560;13.374;2023-04-28T09:26:22;101014.13;;;15.18;37.53
67015;BME280;1033;52.560;13.374;2023-04-28T09:28:52;101012.94;;;14.78;37.90
67015;BME280;1033;52.560;13.374;2023-04-28T09:31:39;101007.66;;;14.83;38.11
67015;BME280;1033;52.560;13.374;2023-04-28T09:34:10;101017.56;;;14.96;38.46
67015;BME280;1033;52.560;13.374;2023-04-28T09:36:39;101010.50;;;15.25;37.60
67015;BME280;1033;52.560;13.374;2023-04-28T09:39:09;100998.78;;;15.36;37.42
67015;BME280;1033;52.560;13.374;2023-04-28T09:41:41;100993.44;;;15.29;37.33
67015;BME280;1033;52.560;13.374;2023-04-28T09:44:13;100997.84;;;15.60;37.28
67015;BME280;1033;52.560;13.374;2023-04-28T09:46:43;100992.56;;;15.47;36.98
67015;BME280;1033;52.560;13.374;2023-04-28T09:49:13;100992.09;;;15.50;37.19
67015;BME280;1033;52.560;13.374;2023-04-28T09:51:43;101000.38;;;15.43;37.49
67015;BME280;1033;52.560;13.374;2023-04-28T09:54:13;100992.72;;;15.52;37.02
67015;BME280;1033;52.560;13.374;2023-04-28T09:56:56;100984.47;;;15.58;36.94
67015;BME280;1033;52.560;13.374;2023-04-28T09:59:46;100987.56;;;15.74;37.30
67015;BME280;1033;52.560;13.374;2023-04-28T10:02:17;100991.50;;;15.78;37.05
67015;BME280;1033;52.560;13.374;2023-04-28T10:05:08;100989.94;;;15.70;36.94
67015;BME280;1033;52.560;13.374;2023-04-28T10:07:38;100985.09;;;15.72;36.79
67015;BME280;1033;52.560;13.374;2023-04-28T10:10:08;100981.47;;;15.60;37.10
67015;BME280;1033;52.560;13.374;2023-04-28T10:12:39;100980.59;;;15.48;37.82
67015;BME280;1033;52.560;13.374;2023-04-28T10:15:12;100970.97;;;15.75;37.28
67015;BME280;1033;52.560;13.374;2023-04-28T10:17:41;100965.59;;;15.57;37.35
67015;BME280;1033;52.560;13.374;2023-04-28T10:20:15;100964.72;;;16.09;36.64
67015;BME280;1033;52.560;13.374;2023-04-28T10:22:55;100966.16;;;16.00;36.80
67015;BME280;1033;52.560;13.374;2023-04-28T10:25:28;100958.31;;;16.39;36.65
67015;BME280;1033;52.560;13.374;2023-04-28T10:28:03;100972.56;;;16.64;36.07
67015;BME280;1033;52.560;13.374;2023-04-28T10:30:33;100959.63;;;16.60;36.36
67015;BME280;1033;52.560;13.374;2023-04-28T10:33:22;100956.97;;;16.76;36.02
67015;BME280;1033;52.560;13.374;2023-04-28T10:35:54;100947.41;;;16.90;35.61
67015;BME280;1033;52.560;13.374;2023-04-28T10:38:23;100947.69;;;16.77;35.86
67015;BME280;1033;52.560;13.374;2023-04-28T10:40:52;100938.94;;;16.52;36.03
67015;BME280;1033;52.560;13.374;2023-04-28T10:43:39;100938.00;;;16.35;36.62
67015;BME280;1033;52.560;13.374;2023-04-28T10:46:09;100933.75;;;16.90;36.14
67015;BME280;1033;52.560;13.374;2023-04-28T10:49:05;100935.63;;;17.30;35.08
67015;BME280;1033;52.560;13.374;2023-04-28T10:51:35;100926.97;;;16.93;35.63
67015;BME280;1033;52.560;13.374;2023-04-28T10:54:17;100924.25;;;17.38;35.02
67015;BME280;1033;52.560;13.374;2023-04-28T10:57:15;100927.19;;;17.31;35.81
67015;BME280;1033;52.560;13.374;2023-04-28T10:59:50;100921.84;;;17.87;34.82
67015;BME280;1033;52.560;13.374;2023-04-28T11:02:41;100923.03;;;17.91;34.38
67015;BME280;1033;52.560;13.374;2023-04-28T11:05:13;100918.94;;;17.60;34.47
67015;BME280;1033;52.560;13.374;2023-04-28T11:11:14;100908.31;;;18.13;34.13
67015;BME280;1033;52.560;13.374;2023-04-28T11:13:44;100905.41;;;18.20;34.09
67015;BME280;1033;52.560;13.374;2023-04-28T11:16:21;100909.28;;;17.57;35.08
67015;BME280;1033;52.560;13.374;2023-04-28T11:18:59;100904.22;;;17.49;35.07
67015;BME280;1033;52.560;13.374;2023-04-28T11:21:32;100912.16;;;17.34;35.45
67015;BME280;1033;52.560;13.374;2023-04-28T11:24:08;100902.28;;;17.61;35.30
67015;BME280;1033;52.560;13.374;2023-04-28T11:26:38;100902.13;;;17.85;34.52
67015;BME280;1033;52.560;13.374;2023-04-28T11:29:08;100906.09;;;17.60;34.95
67015;BME280;1033;52.560;13.374;2023-04-28T11:31:39;100903.06;;;17.45;35.38
67015;BME280;1033;52.560;13.374;2023-04-28T11:34:11;100903.03;;;17.90;34.58
67015;BME280;1033;52.560;13.374;2023-04-28T11:36:41;100895.38;;;18.31;34.32
67015;BME280;1033;52.560;13.374;2023-04-28T11:39:12;100894.94;;;18.55;33.68
67015;BME280;1033;52.560;13.374;2023-04-28T11:41:43;100896.28;;;18.36;33.96
67015;BME280;1033;52.560;13.374;2023-04-28T11:44:13;100896.44;;;18.08;34.64
67015;BME280;1033;52.560;13.374;2023-04-28T11:46:48;100884.25;;;18.37;34.52
67015;BME280;1033;52.560;13.374;2023-04-28T11:49:22;100888.28;;;18.30;34.48
67015;BME280;1033;52.560;13.374;2023-04-28T11:51:52;100884.50;;;18.36;34.61
67015;BME280;1033;52.560;13.374;2023-04-28T11:54:23;100885.19;;;18.64;34.44
67015;BME280;1033;52.560;13.374;2023-04-28T11:56:53;100879.91;;;18.58;34.44
67015;BME280;1033;52.560;13.374;2023-04-28T11:59:25;100881.00;;;18.40;34.24
67015;BME280;1033;52.560;13.374;2023-04-28T12:01:57;100872.47;;;18.53;34.49
67015;BME280;1033;52.560;13.374;2023-04-28T12:04:29;100876.25;;;18.74;33.86
67015;BME280;1033;52.560;13.374;2023-04-28T12:07:01;100874.22;;;18.86;34.59
67015;BME280;1033;52.560;13.374;2023-04-28T12:09:32;100879.84;;;19.28;33.35
67015;BME280;1033;52.560;13.374;2023-04-28T12:12:04;100862.78;;;18.51;34.19
67015;BME280;1033;52.560;13.374;2023-04-28T12:14:52;100870.81;;;19.01;33.78
67015;BME280;1033;52.560;13.374;2023-04-28T12:17:28;100865.53;;;18.51;34.16
67015;BME280;1033;52.560;13.374;2023-04-28T12:20:00;100863.91;;;18.98;33.56
67015;BME280;1033;52.560;13.374;2023-04-28T12:22:30;100863.06;;;18.71;33.40
67015;BME280;1033;52.560;13.374;2023-04-28T12:25:04;100865.56;;;18.73;34.20
67015;BME280;1033;52.560;13.374;2023-04-28T12:27:35;100860.91;;;18.73;34.04
67015;BME280;1033;52.560;13.374;2023-04-28T12:30:26;100853.22;;;18.97;33.72
67015;BME280;1033;52.560;13.374;2023-04-28T12:32:57;100847.00;;;19.06;34.19
67015;BME280;1033;52.560;13.374;2023-04-28T12:35:27;100852.31;;;19.18;33.70
67015;BME280;1033;52.560;13.374;2023-04-28T12:37:57;100853.03;;;19.08;33.53
67015;BME280;1033;52.560;13.374;2023-04-28T12:40:27;100852.03;;;18.66;34.17
67015;BME280;1033;52.560;13.374;2023-04-28T12:42:57;100842.03;;;18.55;34.51
67015;BME280;1033;52.560;13.374;2023-04-28T12:45:27;100844.66;;;18.66;34.49
67015;BME280;1033;52.560;13.374;2023-04-28T12:47:58;100841.50;;;18.80;34.29
67015;BME280;1033;52.560;13.374;2023-04-28T12:50:28;100834.97;;;19.13;34.49
67015;BME280;1033;52.560;13.374;2023-04-28T12:53:00;100833.47;;;19.27;33.91
67015;BME280;1033;52.560;13.374;2023-04-28T12:55:29;100829.44;;;19.07;33.89
67015;BME280;1033;52.560;13.374;2023-04-28T12:57:58;100832.25;;;18.86;34.29
67015;BME280;1033;52.560;13.374;2023-04-28T13:00:28;100833.28;;;18.80;34.67
67015;BME280;1033;52.560;13.374;2023-04-28T13:02:58;100821.28;;;18.86;34.58
67015;BME280;1033;52.560;13.374;2023-04-28T13:05:28;100824.81;;;18.81;34.55
67015;BME280;1033;52.560;13.374;2023-04-28T13:08:00;100818.00;;;18.89;34.36
67015;BME280;1033;52.560;13.374;2023-04-28T13:10:29;100816.00;;;19.06;34.56
67015;BME280;1033;52.560;13.374;2023-04-28T13:12:58;100817.91;;;19.37;34.03
67015;BME280;1033;52.560;13.374;2023-04-28T13:15:28;100816.19;;;19.26;34.18
67015;BME280;1033;52.560;13.374;2023-04-28T13:17:58;100808.06;;;19.41;34.22
67015;BME280;1033;52.560;13.374;2023-04-28T13:20:28;100797.72;;;19.48;33.82
67015;BME280;1033;52.560;13.374;2023-04-28T13:22:57;100799.34;;;18.86;34.55
67015;BME280;1033;52.560;13.374;2023-04-28T13:25:27;100801.00;;;18.60;34.93